createdAt,value
2019-05-17T00:01:50.523Z,37.20
2019-05-17T00:04:21.785Z,37.43
2019-05-17T00:06:53.191Z,36.20
2019-05-17T00:09:26.608Z,38.70
2019-05-17T00:11:57.430Z,28.50
2019-05-17T00:14:28.530Z,33.97
2019-05-17T00:16:59.749Z,27.40
2019-05-17T00:19:31.914Z,26.20
2019-05-17T00:22:03.911Z,25.13
2019-05-17T00:24:37.018Z,17.73
2019-05-17T00:27:08.028Z,18.33
2019-05-17T00:29:39.142Z,23.70
2019-05-17T00:32:10.459Z,23.67
2019-05-17T00:34:41.318Z,20.40
2019-05-17T00:37:12.411Z,15.40
2019-05-17T00:39:43.447Z,23.90
2019-05-17T00:42:16.857Z,25.80
2019-05-17T00:44:51.306Z,23.67
2019-05-17T00:47:22.608Z,27.40
2019-05-17T00:49:54.018Z,28.40
2019-05-17T00:52:27.215Z,24.60
2019-05-17T00:54:57.958Z,23.10
2019-05-17T00:57:29.103Z,26.50
2019-05-17T01:00:00.150Z,21.93
2019-05-17T01:02:31.450Z,26.27
2019-05-17T01:05:02.585Z,25.07
2019-05-17T01:07:34.148Z,25.40
2019-05-17T01:10:06.970Z,23.73
2019-05-17T01:12:38.119Z,21.60
2019-05-17T01:15:11.111Z,23.07
2019-05-17T01:17:42.303Z,24.47
2019-05-17T01:20:13.896Z,19.33
2019-05-17T01:22:47.209Z,21.83
2019-05-17T01:25:17.769Z,23.97
2019-05-17T01:27:48.827Z,21.77
2019-05-17T01:30:20.142Z,21.60
2019-05-17T01:32:51.072Z,25.57
2019-05-17T01:35:22.135Z,27.43
2019-05-17T01:37:53.034Z,28.33
2019-05-17T01:40:26.391Z,26.97
2019-05-17T01:42:58.190Z,18.50
2019-05-17T01:45:29.215Z,18.43
2019-05-17T01:48:00.132Z,20.83
2019-05-17T01:50:31.403Z,20.97
2019-05-17T01:53:02.862Z,25.50
2019-05-17T01:55:33.770Z,20.57
2019-05-17T01:58:07.006Z,21.67
2019-05-17T02:00:37.826Z,22.37
2019-05-17T02:03:10.000Z,22.53
2019-05-17T02:05:41.074Z,20.63
2019-05-17T02:08:12.263Z,23.13
2019-05-17T02:10:43.161Z,24.07
2019-05-17T02:13:16.285Z,18.60
2019-05-17T02:15:47.147Z,21.37
2019-05-17T02:18:18.770Z,20.90
2019-05-17T02:20:49.804Z,21.40
2019-05-17T02:23:21.138Z,26.53
2019-05-17T02:25:52.447Z,16.80
2019-05-17T02:28:23.287Z,57.77
2019-05-17T02:30:54.621Z,53.63
2019-05-17T02:33:26.299Z,71.20
2019-05-17T02:35:57.272Z,62.80
2019-05-17T02:38:28.463Z,61.90
2019-05-17T02:41:02.914Z,30.10
2019-05-17T02:43:33.580Z,18.83
2019-05-17T02:46:05.103Z,32.23
2019-05-17T02:48:35.851Z,35.47
2019-05-17T02:51:06.803Z,16.27
2019-05-17T02:53:38.051Z,65.90
2019-05-17T02:56:13.234Z,74.77
2019-05-17T02:58:43.862Z,253.13
2019-05-17T03:01:15.734Z,38.03
2019-05-17T03:03:46.760Z,234.53
2019-05-17T03:06:17.852Z,217.77
2019-05-17T03:08:52.224Z,183.67
2019-05-17T03:11:22.687Z,58.40
2019-05-17T03:13:54.064Z,122.30
2019-05-17T03:16:25.003Z,49.87
2019-05-17T03:18:57.420Z,139.53
2019-05-17T03:21:28.608Z,250.67
2019-05-17T03:24:02.880Z,16.33
2019-05-17T03:26:32.937Z,31.03
2019-05-17T03:29:04.112Z,29.07
2019-05-17T03:31:42.329Z,37.70
2019-05-17T03:34:08.171Z,48.73
2019-05-17T03:36:39.153Z,79.67
2019-05-17T03:39:12.816Z,106.30
2019-05-17T03:41:43.268Z,49.07
2019-05-17T03:44:14.660Z,27.10
2019-05-17T03:46:45.644Z,83.63
2019-05-17T03:49:16.994Z,70.10
2019-05-17T03:51:47.948Z,93.17
2019-05-17T03:54:22.429Z,96.60
2019-05-17T03:56:53.236Z,56.40
2019-05-17T03:59:25.576Z,26.13
2019-05-17T04:01:57.019Z,28.13
2019-05-17T04:04:28.164Z,36.10
2019-05-17T04:06:59.533Z,32.53
2019-05-17T04:09:32.871Z,17.97
2019-05-17T04:12:03.317Z,21.87
2019-05-17T04:14:34.091Z,19.20
2019-05-17T04:17:05.500Z,39.70
2019-05-17T04:19:36.520Z,60.07
2019-05-17T04:22:07.752Z,59.33
2019-05-17T04:24:38.962Z,77.77
2019-05-17T04:27:13.397Z,74.33
2019-05-17T04:29:42.907Z,96.53
2019-05-17T04:32:13.829Z,189.00
2019-05-17T04:34:45.152Z,83.93
2019-05-17T04:37:16.172Z,115.70
2019-05-17T04:39:47.141Z,61.43
2019-05-17T04:42:18.413Z,72.10
2019-05-17T04:44:52.420Z,44.27
2019-05-17T04:47:23.147Z,17.70
2019-05-17T04:49:54.392Z,16.03
2019-05-17T04:52:25.724Z,61.53
2019-05-17T04:54:56.968Z,69.33
2019-05-17T04:57:32.493Z,61.20
2019-05-17T05:00:04.217Z,16.97
2019-05-17T05:02:35.324Z,27.90
2019-05-17T05:05:06.635Z,93.67
2019-05-17T05:07:38.853Z,48.27
2019-05-17T05:10:13.095Z,50.63
2019-05-17T05:12:43.629Z,62.13
2019-05-17T05:15:15.643Z,69.97
2019-05-17T05:17:46.875Z,48.93
2019-05-17T05:20:17.972Z,77.80
2019-05-17T05:22:48.835Z,48.20
2019-05-17T05:25:21.659Z,21.43
2019-05-17T05:27:53.115Z,45.00
2019-05-17T05:30:24.595Z,87.97
2019-05-17T05:32:55.687Z,55.23
2019-05-17T05:35:26.698Z,54.73
2019-05-17T05:37:57.575Z,53.13
2019-05-17T05:40:28.763Z,101.23
2019-05-17T05:43:02.306Z,74.50
2019-05-17T05:45:33.354Z,40.90
2019-05-17T05:48:04.503Z,68.80
2019-05-17T05:50:35.491Z,68.43
2019-05-17T05:53:06.586Z,49.20
2019-05-17T05:55:37.875Z,37.83
2019-05-17T05:58:11.920Z,44.80
2019-05-17T06:00:43.100Z,28.17
2019-05-17T06:03:14.386Z,21.87
2019-05-17T06:05:45.738Z,31.30
2019-05-17T06:08:16.531Z,25.67
2019-05-17T06:10:47.285Z,24.27
2019-05-17T06:13:18.228Z,40.47
2019-05-17T06:15:51.621Z,27.53
2019-05-17T06:18:22.658Z,18.67
2019-05-17T06:20:54.942Z,30.77
2019-05-17T06:23:25.839Z,26.07
2019-05-17T06:25:56.887Z,27.83
2019-05-17T06:28:28.002Z,19.70
2019-05-17T06:30:58.762Z,30.37
2019-05-17T06:33:33.824Z,23.83
2019-05-17T06:36:02.828Z,24.90
2019-05-17T06:38:33.842Z,22.23
2019-05-17T06:41:04.959Z,19.80
2019-05-17T06:43:38.392Z,22.53
2019-05-17T06:46:08.602Z,19.30
2019-05-17T06:48:42.372Z,18.87
2019-05-17T06:51:13.627Z,19.67
2019-05-17T06:53:44.787Z,18.13
2019-05-17T06:56:16.594Z,18.20
2019-05-17T06:58:47.628Z,18.63
2019-05-17T07:01:19.721Z,17.17
2019-05-17T07:03:51.534Z,18.13
2019-05-17T07:06:24.779Z,17.87
2019-05-17T07:08:55.875Z,17.10
2019-05-17T07:11:27.267Z,15.57
2019-05-17T07:13:59.737Z,16.50
2019-05-17T07:16:31.128Z,16.00
2019-05-17T07:19:02.216Z,16.63
2019-05-17T07:21:33.420Z,18.60
2019-05-17T07:24:04.334Z,16.47
2019-05-17T07:26:35.383Z,17.63
2019-05-17T07:29:06.275Z,16.43
2019-05-17T07:31:37.647Z,16.73
2019-05-17T07:34:09.225Z,16.07
2019-05-17T07:36:40.407Z,14.77
2019-05-17T07:39:12.454Z,16.63
2019-05-17T07:41:43.531Z,15.97
2019-05-17T07:44:14.463Z,15.50
2019-05-17T07:46:45.692Z,13.90
2019-05-17T07:49:16.731Z,13.90
2019-05-17T07:51:50.175Z,13.63
2019-05-17T07:54:20.748Z,15.23
2019-05-17T07:56:52.747Z,13.87
2019-05-17T07:59:23.817Z,13.27
2019-05-17T08:01:54.903Z,14.60
2019-05-17T08:04:26.077Z,14.23
2019-05-17T08:06:59.688Z,14.07
2019-05-17T08:09:30.619Z,13.57
2019-05-17T08:12:01.631Z,16.07
2019-05-17T08:14:33.566Z,15.00
2019-05-17T08:17:04.818Z,15.53
2019-05-17T08:19:35.734Z,14.43
2019-05-17T08:22:09.631Z,13.77
2019-05-17T08:24:40.059Z,13.77
2019-05-17T08:27:11.235Z,14.53
2019-05-17T08:29:42.088Z,15.60
2019-05-17T08:32:13.224Z,14.37
2019-05-17T08:34:44.287Z,14.33
2019-05-17T08:37:15.388Z,13.03
2019-05-17T08:39:46.521Z,14.03
2019-05-17T08:42:20.326Z,11.47
2019-05-17T08:44:50.555Z,12.40
2019-05-17T08:47:21.871Z,10.80
2019-05-17T08:49:52.804Z,12.40
2019-05-17T08:52:23.764Z,11.03
2019-05-17T08:54:54.795Z,12.07
2019-05-17T08:57:25.761Z,12.10
2019-05-17T08:59:57.073Z,11.30
2019-05-17T09:02:29.904Z,13.53
2019-05-17T09:05:00.895Z,12.13
2019-05-17T09:07:31.931Z,10.67
2019-05-17T09:10:03.799Z,11.00
2019-05-17T09:12:34.806Z,10.60
2019-05-17T09:15:06.651Z,9.47
2019-05-17T09:17:39.760Z,10.10
2019-05-17T09:20:11.151Z,10.03
2019-05-17T09:22:42.483Z,9.20
2019-05-17T09:25:18.853Z,9.37
2019-05-17T09:27:46.891Z,9.57
2019-05-17T09:30:20.303Z,10.50
2019-05-17T09:32:51.931Z,8.20
2019-05-17T09:35:23.162Z,9.37
2019-05-17T09:37:54.095Z,10.63
2019-05-17T09:40:24.931Z,9.83
2019-05-17T09:42:56.010Z,9.20
2019-05-17T09:45:26.884Z,9.73
2019-05-17T09:48:00.528Z,9.60
2019-05-17T09:50:30.618Z,9.10
2019-05-17T09:53:01.828Z,9.37
2019-05-17T09:55:32.607Z,7.83
2019-05-17T09:58:03.724Z,8.27
2019-05-17T10:00:34.784Z,8.53
2019-05-17T10:03:05.976Z,7.90
2019-05-17T10:05:37.214Z,7.90
2019-05-17T10:08:10.596Z,8.37
2019-05-17T10:10:41.115Z,8.90
2019-05-17T10:13:12.422Z,9.33
2019-05-17T10:15:43.434Z,8.60
2019-05-17T10:18:14.486Z,8.50
2019-05-17T10:20:45.834Z,7.37
2019-05-17T10:23:19.519Z,6.60
2019-05-17T10:25:49.983Z,6.30
2019-05-17T10:28:20.955Z,8.27
2019-05-17T10:30:52.470Z,9.20
2019-05-17T10:33:23.917Z,7.47
2019-05-17T10:35:54.685Z,9.03
2019-05-17T10:38:25.778Z,7.87
2019-05-17T10:40:56.838Z,7.77
2019-05-17T10:43:29.739Z,8.20
2019-05-17T10:46:00.723Z,8.00
2019-05-17T10:48:33.155Z,7.87
2019-05-17T10:51:04.508Z,7.97
2019-05-17T10:53:35.494Z,7.40
2019-05-17T10:56:06.800Z,7.60
2019-05-17T10:58:39.887Z,6.63
2019-05-17T11:01:10.455Z,6.47
2019-05-17T11:03:42.067Z,7.53
2019-05-17T11:06:13.264Z,7.27
2019-05-17T11:08:44.303Z,7.93
2019-05-17T11:11:15.518Z,6.40
2019-05-17T11:13:46.495Z,6.47
2019-05-17T11:16:18.006Z,6.43
2019-05-17T11:18:48.904Z,6.50
2019-05-17T11:21:20.283Z,6.30
2019-05-17T11:23:51.859Z,5.93
2019-05-17T11:26:23.255Z,7.07
2019-05-17T11:28:55.624Z,6.93
2019-05-17T11:31:26.586Z,6.63
2019-05-17T11:33:57.642Z,6.40
2019-05-17T11:36:28.803Z,7.33
2019-05-17T11:38:59.942Z,6.03
2019-05-17T11:41:31.127Z,5.93
2019-05-17T11:44:02.210Z,4.77
2019-05-17T11:46:36.355Z,6.37
2019-05-17T11:49:05.907Z,8.27
2019-05-17T11:51:37.011Z,7.50
2019-05-17T11:54:08.137Z,6.67
2019-05-17T11:56:38.910Z,6.87
2019-05-17T11:59:10.490Z,7.57
2019-05-17T12:01:41.676Z,7.83
2019-05-17T12:04:12.931Z,7.53
2019-05-17T12:06:44.047Z,6.40
2019-05-17T12:09:15.147Z,6.07
2019-05-17T12:11:46.381Z,7.03
2019-05-17T12:14:17.355Z,5.73
2019-05-17T12:16:48.506Z,6.40
2019-05-17T12:19:19.867Z,6.83
2019-05-17T12:21:50.787Z,5.90
2019-05-17T12:24:21.850Z,6.70
2019-05-17T12:26:52.671Z,7.67
2019-05-17T12:29:23.631Z,5.90
2019-05-17T12:31:55.113Z,5.40
2019-05-17T12:34:26.319Z,6.20
2019-05-17T12:36:57.424Z,5.40
2019-05-17T12:39:28.491Z,5.17
2019-05-17T12:41:59.582Z,7.17
2019-05-17T12:44:31.311Z,5.80
2019-05-17T12:47:02.331Z,8.40
2019-05-17T12:49:33.503Z,5.57
2019-05-17T12:52:04.615Z,7.03
2019-05-17T12:54:36.643Z,4.50
2019-05-17T12:57:08.087Z,4.50
2019-05-17T12:59:40.279Z,5.33
2019-05-17T13:02:12.723Z,6.37
2019-05-17T13:04:44.336Z,5.57
2019-05-17T13:07:15.740Z,7.23
2019-05-17T13:09:46.827Z,4.80
2019-05-17T13:12:18.191Z,7.30
2019-05-17T13:14:49.332Z,5.27
2019-05-17T13:17:20.607Z,5.00
2019-05-17T13:19:51.963Z,5.60
2019-05-17T13:22:23.272Z,6.43
2019-05-17T13:24:54.303Z,6.03
2019-05-17T13:27:25.929Z,6.30
2019-05-17T13:29:57.177Z,6.67
2019-05-17T13:32:27.983Z,5.73
2019-05-17T13:34:58.856Z,5.77
2019-05-17T13:37:29.962Z,6.93
2019-05-17T13:40:01.136Z,6.17
2019-05-17T13:42:33.495Z,5.33
2019-05-17T13:45:05.166Z,7.97
2019-05-17T13:47:36.756Z,8.20
2019-05-17T13:50:08.369Z,5.80
2019-05-17T13:52:39.656Z,5.30
2019-05-17T13:55:10.998Z,4.97
2019-05-17T13:57:43.251Z,7.07
2019-05-17T14:00:16.111Z,5.53
2019-05-17T14:02:47.819Z,5.37
2019-05-17T14:05:18.739Z,5.50
2019-05-17T14:07:50.011Z,5.83
2019-05-17T14:10:27.664Z,5.10
2019-05-17T14:12:54.435Z,5.17
2019-05-17T14:15:25.558Z,5.60
2019-05-17T14:17:57.688Z,5.90
2019-05-17T14:20:29.153Z,6.47
2019-05-17T14:23:00.690Z,5.97
2019-05-17T14:25:32.050Z,6.40
2019-05-17T14:28:03.319Z,6.83
2019-05-17T14:30:34.939Z,5.83
2019-05-17T14:33:06.115Z,5.13
2019-05-17T14:35:37.260Z,5.07
2019-05-17T14:38:08.627Z,5.20
2019-05-17T14:41:04.991Z,5.83
2019-05-17T14:43:12.683Z,6.20
2019-05-17T14:45:45.259Z,6.00
2019-05-17T14:48:16.635Z,6.00
2019-05-17T14:50:48.082Z,7.40
2019-05-17T14:53:19.676Z,6.93
2019-05-17T14:55:51.079Z,6.53
2019-05-17T14:58:22.406Z,6.40
2019-05-17T15:00:54.438Z,6.27
2019-05-17T15:03:26.231Z,6.47
2019-05-17T15:05:57.844Z,6.50
2019-05-17T15:08:29.253Z,6.50
2019-05-17T15:11:00.945Z,5.77
2019-05-17T15:13:32.113Z,6.13
2019-05-17T15:16:03.491Z,4.93
2019-05-17T15:18:34.599Z,5.50
2019-05-17T15:21:05.981Z,6.07
2019-05-17T15:23:37.726Z,7.37
2019-05-17T15:26:08.867Z,6.60
2019-05-17T15:28:40.181Z,4.67
2019-05-17T15:31:12.268Z,6.97
2019-05-17T15:33:43.422Z,6.73
2019-05-17T15:36:15.715Z,4.97
2019-05-17T15:38:46.751Z,5.07
2019-05-17T15:41:18.036Z,5.00
2019-05-17T15:43:49.456Z,6.17
2019-05-17T15:46:20.869Z,4.20
2019-05-17T15:48:52.371Z,4.20
2019-05-17T15:51:26.842Z,4.50
2019-05-17T15:53:57.631Z,3.57
2019-05-17T15:56:28.743Z,4.93
2019-05-17T15:59:00.288Z,3.83
2019-05-17T16:01:30.999Z,5.07
2019-05-17T16:04:01.726Z,4.43
2019-05-17T16:06:32.871Z,4.10
2019-05-17T16:09:07.003Z,5.67
2019-05-17T16:11:38.207Z,5.80
2019-05-17T16:14:10.236Z,4.50
2019-05-17T16:16:41.690Z,5.33
2019-05-17T16:19:12.927Z,5.73
2019-05-17T16:21:44.454Z,5.80
2019-05-17T16:24:15.805Z,5.03
2019-05-17T16:26:46.938Z,5.67
2019-05-17T16:29:17.907Z,7.07
2019-05-17T16:31:49.543Z,7.10
2019-05-17T16:34:20.827Z,6.43
2019-05-17T16:36:52.409Z,6.27
2019-05-17T16:39:24.376Z,5.80
2019-05-17T16:41:56.067Z,7.80
2019-05-17T16:44:27.736Z,7.83
2019-05-17T16:46:59.115Z,5.53
2019-05-17T16:49:30.283Z,5.17
2019-05-17T16:52:01.511Z,6.03
2019-05-17T16:54:32.814Z,5.07
2019-05-17T16:57:04.438Z,5.43
2019-05-17T16:59:35.791Z,6.43
2019-05-17T17:02:07.598Z,6.13
2019-05-17T17:04:38.703Z,6.57
2019-05-17T17:07:10.388Z,6.00
2019-05-17T17:09:42.215Z,5.57
2019-05-17T17:12:15.098Z,6.33
2019-05-17T17:14:46.779Z,5.37
2019-05-17T17:17:18.367Z,6.00
2019-05-17T17:19:49.363Z,6.70
2019-05-17T17:22:20.379Z,6.47
2019-05-17T17:24:51.443Z,6.40
2019-05-17T17:27:22.794Z,8.40
2019-05-17T17:29:54.042Z,6.13
2019-05-17T17:32:25.243Z,7.53
2019-05-17T17:34:56.632Z,8.17
2019-05-17T17:37:27.703Z,7.00
2019-05-17T17:39:58.895Z,8.07
2019-05-17T17:42:30.227Z,7.00
2019-05-17T17:45:01.346Z,8.93
2019-05-17T17:47:32.347Z,9.63
2019-05-17T17:50:03.356Z,8.97
2019-05-17T17:52:35.000Z,8.63
2019-05-17T17:55:06.850Z,9.53
2019-05-17T17:57:41.002Z,8.13
2019-05-17T18:00:11.671Z,8.93
2019-05-17T18:02:43.003Z,8.90
2019-05-17T18:05:14.573Z,10.27
2019-05-17T18:07:45.907Z,11.00
2019-05-17T18:10:27.387Z,11.43
2019-05-17T18:12:59.126Z,10.83
2019-05-17T18:15:43.311Z,10.60
2019-05-17T18:18:16.351Z,11.93
2019-05-17T18:20:47.315Z,10.97
2019-05-17T18:23:22.502Z,11.00
2019-05-17T18:25:51.379Z,13.73
2019-05-17T18:28:22.816Z,14.37
2019-05-17T18:30:53.955Z,14.10
2019-05-17T18:33:24.831Z,15.60
2019-05-17T18:35:57.611Z,35.87
2019-05-17T18:38:31.448Z,39.87
2019-05-17T18:41:02.792Z,26.57
2019-05-17T18:43:34.370Z,23.37
2019-05-17T18:46:06.279Z,20.03
2019-05-17T18:48:37.975Z,16.93
2019-05-17T18:51:09.142Z,19.17
2019-05-17T18:53:40.595Z,19.90
2019-05-17T18:56:11.819Z,25.00
2019-05-17T18:58:43.151Z,28.03
2019-05-17T19:01:14.663Z,24.27
2019-05-17T19:03:46.709Z,21.27
2019-05-17T19:06:18.247Z,18.87
2019-05-17T19:08:50.347Z,17.77
2019-05-17T19:11:21.390Z,20.03
2019-05-17T19:13:52.459Z,18.40
2019-05-17T19:16:23.834Z,16.40
2019-05-17T19:18:55.247Z,20.53
2019-05-17T19:21:26.587Z,21.47
2019-05-17T19:23:57.795Z,18.03
2019-05-17T19:26:29.111Z,23.57
2019-05-17T19:29:00.391Z,23.53
2019-05-17T19:31:31.975Z,19.43
2019-05-17T19:34:03.247Z,15.43
2019-05-17T19:36:34.236Z,17.50
2019-05-17T19:39:06.622Z,18.77
2019-05-17T19:41:38.055Z,18.43
2019-05-17T19:44:08.967Z,18.67
2019-05-17T19:46:40.463Z,18.30
2019-05-17T19:49:12.166Z,19.93
2019-05-17T19:51:43.598Z,20.00
2019-05-17T19:54:14.691Z,19.00
2019-05-17T19:56:46.199Z,18.30
2019-05-17T19:59:17.479Z,19.57
2019-05-17T20:01:48.800Z,22.07
2019-05-17T20:04:20.360Z,21.53
2019-05-17T20:06:51.371Z,25.00
2019-05-17T20:09:22.623Z,21.60
2019-05-17T20:11:54.895Z,22.63
2019-05-17T20:14:26.262Z,22.97
2019-05-17T20:16:57.655Z,19.77
2019-05-17T20:19:28.462Z,19.50
2019-05-17T20:21:59.749Z,16.80
2019-05-17T20:24:30.947Z,18.57
2019-05-17T20:27:02.391Z,16.50
2019-05-17T20:29:34.724Z,16.50
2019-05-17T20:32:05.890Z,16.67
2019-05-17T20:34:37.043Z,18.37
2019-05-17T20:37:08.163Z,23.03
2019-05-17T20:39:39.303Z,19.27
2019-05-17T20:42:10.802Z,18.37
2019-05-17T20:44:41.767Z,18.93
2019-05-17T20:47:12.767Z,20.57
2019-05-17T20:49:43.829Z,22.03
2019-05-17T20:52:14.676Z,21.93
2019-05-17T20:54:47.439Z,19.83
2019-05-17T20:57:18.711Z,16.57
2019-05-17T20:59:50.543Z,21.33
2019-05-17T21:02:22.448Z,19.90
2019-05-17T21:04:53.534Z,18.50
2019-05-17T21:07:24.763Z,18.47
2019-05-17T21:09:56.208Z,29.57
2019-05-17T21:12:27.919Z,26.30
2019-05-17T21:14:58.979Z,22.70
2019-05-17T21:17:30.408Z,24.33
2019-05-17T21:20:01.279Z,25.00
2019-05-17T21:22:32.791Z,27.90
2019-05-17T21:25:04.123Z,29.67
2019-05-17T21:27:35.379Z,25.83
2019-05-17T21:30:08.020Z,30.73
2019-05-17T21:32:39.082Z,26.83
2019-05-17T21:35:10.635Z,29.30
2019-05-17T21:37:41.799Z,30.53
2019-05-17T21:40:14.220Z,27.90
2019-05-17T21:42:45.483Z,28.07
2019-05-17T21:45:17.031Z,27.73
2019-05-17T21:47:48.392Z,25.20
2019-05-17T21:50:20.299Z,26.83
2019-05-17T21:52:51.556Z,24.17
2019-05-17T21:55:22.848Z,27.03
2019-05-17T21:57:54.058Z,26.73
2019-05-17T22:01:02.361Z,23.70
2019-05-17T22:03:33.857Z,24.07
2019-05-17T22:06:04.960Z,21.63
2019-05-17T22:08:38.729Z,23.77
2019-05-17T22:11:10.025Z,23.83
2019-05-17T22:13:41.227Z,25.50
2019-05-17T22:16:19.496Z,32.50
2019-05-17T22:18:44.875Z,31.27
2019-05-17T22:21:17.286Z,27.07
2019-05-17T22:23:48.371Z,28.60
2019-05-17T22:26:19.171Z,25.17
2019-05-17T22:28:51.030Z,33.37
2019-05-17T22:31:22.043Z,23.83
2019-05-17T22:33:52.947Z,24.70
2019-05-17T22:36:24.100Z,22.63
2019-05-17T22:38:55.045Z,29.33
2019-05-17T22:41:26.260Z,24.93
2019-05-17T22:43:57.451Z,25.73
2019-05-17T22:46:36.247Z,25.13
2019-05-17T22:49:01.384Z,21.67
2019-05-17T22:51:32.670Z,19.73
2019-05-17T22:54:04.076Z,18.90
2019-05-17T22:56:35.252Z,27.07
2019-05-17T22:59:06.295Z,25.50
2019-05-17T23:01:37.366Z,35.93
2019-05-17T23:04:08.728Z,23.80
2019-05-17T23:06:39.932Z,24.10
2019-05-17T23:09:11.027Z,20.73
2019-05-17T23:11:42.755Z,28.63
2019-05-17T23:14:13.784Z,23.60
2019-05-17T23:16:51.595Z,25.13
2019-05-17T23:19:18.082Z,34.70
2019-05-17T23:21:49.322Z,29.37
2019-05-17T23:24:21.808Z,30.10
2019-05-17T23:26:52.878Z,25.93
2019-05-17T23:29:24.363Z,21.87
2019-05-17T23:31:55.515Z,21.77
2019-05-17T23:34:26.799Z,22.90
2019-05-17T23:36:57.786Z,21.23
2019-05-17T23:39:28.815Z,19.70
2019-05-17T23:41:59.743Z,21.97
2019-05-17T23:44:31.091Z,24.30
2019-05-17T23:47:06.988Z,22.07
2019-05-17T23:49:36.651Z,25.40
2019-05-17T23:52:07.744Z,23.23
2019-05-17T23:54:39.074Z,26.80
2019-05-17T23:57:10.064Z,22.43
2019-05-17T23:59:41.799Z,18.27
